createdAt,value
2022-08-29T00:00:31.919Z,10.05
2022-08-29T00:03:00.110Z,10.38
2022-08-29T00:05:31.197Z,10.02
2022-08-29T00:07:59.515Z,9.90
2022-08-29T00:10:27.908Z,10.57
2022-08-29T00:12:55.129Z,9.88
2022-08-29T00:15:25.713Z,9.77
2022-08-29T00:17:52.473Z,9.15
2022-08-29T00:20:30.223Z,9.70
2022-08-29T00:23:01.805Z,10.02
2022-08-29T00:25:28.515Z,9.43
2022-08-29T00:27:55.191Z,9.70
2022-08-29T00:30:23.182Z,9.20
2022-08-29T00:32:50.218Z,9.25
2022-08-29T00:35:22.711Z,8.40
2022-08-29T00:37:51.513Z,8.23
2022-08-29T00:40:26.697Z,9.10
2022-08-29T00:42:54.318Z,8.60
2022-08-29T00:45:21.292Z,9.02
2022-08-29T00:48:02.228Z,8.55
2022-08-29T00:50:33.152Z,8.07
2022-08-29T00:53:01.565Z,8.50
2022-08-29T00:55:32.537Z,8.15
2022-08-29T00:58:06.126Z,8.65
2022-08-29T01:00:33.702Z,7.90
2022-08-29T01:03:00.681Z,7.82
2022-08-29T01:05:27.411Z,7.78
2022-08-29T01:07:54.209Z,7.80
2022-08-29T01:10:40.765Z,7.78
2022-08-29T01:13:09.278Z,7.03
2022-08-29T01:15:37.698Z,6.85
2022-08-29T01:18:06.074Z,7.15
2022-08-29T01:21:04.334Z,7.68
2022-08-29T01:23:59.596Z,7.47
2022-08-29T01:26:28.970Z,7.10
2022-08-29T01:28:56.816Z,8.18
2022-08-29T01:31:31.778Z,7.75
2022-08-29T01:34:16.257Z,7.72
2022-08-29T01:37:03.118Z,7.60
2022-08-29T01:39:33.998Z,7.68
2022-08-29T01:42:04.596Z,8.05
2022-08-29T01:44:31.483Z,7.18
2022-08-29T01:47:02.775Z,7.55
2022-08-29T01:49:34.789Z,7.68
2022-08-29T01:52:06.064Z,6.75
2022-08-29T01:54:33.408Z,6.53
2022-08-29T01:57:01.481Z,6.90
2022-08-29T01:59:29.999Z,7.00
2022-08-29T02:02:07.495Z,6.25
2022-08-29T02:04:34.988Z,6.55
2022-08-29T02:07:01.913Z,6.07
2022-08-29T02:09:29.074Z,7.07
2022-08-29T02:11:58.074Z,7.10
2022-08-29T02:14:25.079Z,7.32
2022-08-29T02:16:51.771Z,6.65
2022-08-29T02:19:19.391Z,6.55
2022-08-29T02:21:46.294Z,6.68
2022-08-29T02:24:25.362Z,7.75
2022-08-29T02:26:54.622Z,6.82
2022-08-29T02:29:21.394Z,7.28
2022-08-29T02:31:48.515Z,6.28
2022-08-29T02:34:16.058Z,6.30
2022-08-29T02:36:44.455Z,6.28
2022-08-29T02:39:11.761Z,6.90
2022-08-29T02:41:38.745Z,6.28
2022-08-29T02:44:05.829Z,6.80
2022-08-29T02:46:32.744Z,6.47
2022-08-29T02:49:00.729Z,5.95
2022-08-29T02:51:30.983Z,6.10
2022-08-29T02:53:57.984Z,5.65
2022-08-29T02:56:24.774Z,6.90
2022-08-29T02:58:51.544Z,5.80
2022-08-29T03:01:23.209Z,6.05
2022-08-29T03:03:51.324Z,6.15
2022-08-29T03:06:19.558Z,5.85
2022-08-29T03:08:46.922Z,5.10
2022-08-29T03:11:13.973Z,6.32
2022-08-29T03:13:40.744Z,5.68
2022-08-29T03:16:08.623Z,6.18
2022-08-29T03:18:35.379Z,5.80
2022-08-29T03:21:02.040Z,4.90
2022-08-29T03:23:28.719Z,5.45
2022-08-29T03:25:55.512Z,5.93
2022-08-29T03:28:22.169Z,4.93
2022-08-29T03:30:48.887Z,5.53
2022-08-29T03:33:15.718Z,4.68
2022-08-29T03:35:42.680Z,4.80
2022-08-29T03:38:09.415Z,5.20
2022-08-29T03:40:36.228Z,5.60
2022-08-29T03:43:03.360Z,5.18
2022-08-29T03:45:30.621Z,4.60
2022-08-29T03:47:57.335Z,4.72
2022-08-29T03:50:24.346Z,5.88
2022-08-29T03:52:51.459Z,4.88
2022-08-29T03:55:20.226Z,5.00
2022-08-29T03:57:47.640Z,5.18
2022-08-29T04:00:17.064Z,4.60
2022-08-29T04:02:46.753Z,5.03
2022-08-29T04:05:15.785Z,4.65
2022-08-29T04:07:45.192Z,5.18
2022-08-29T04:10:15.895Z,5.25
2022-08-29T04:12:42.685Z,4.68
2022-08-29T04:15:10.044Z,5.20
2022-08-29T04:17:38.077Z,5.47
2022-08-29T04:20:24.543Z,4.75
2022-08-29T04:22:52.281Z,4.93
2022-08-29T04:25:19.015Z,5.72
2022-08-29T04:27:45.712Z,4.95
2022-08-29T04:30:16.366Z,4.28
2022-08-29T04:32:44.418Z,5.20
2022-08-29T04:35:13.443Z,4.53
2022-08-29T04:37:42.031Z,5.07
2022-08-29T04:40:11.378Z,4.50
2022-08-29T04:42:39.369Z,4.93
2022-08-29T04:45:08.743Z,5.45
2022-08-29T04:47:36.062Z,5.65
2022-08-29T04:50:03.169Z,5.15
2022-08-29T04:52:29.831Z,4.32
2022-08-29T04:54:56.927Z,5.10
2022-08-29T04:57:24.705Z,4.97
2022-08-29T04:59:58.828Z,5.15
2022-08-29T05:02:27.725Z,4.18
2022-08-29T05:04:56.491Z,5.20
2022-08-29T05:07:26.992Z,4.88
2022-08-29T05:10:06.208Z,4.72
2022-08-29T05:12:36.222Z,5.13
2022-08-29T05:15:04.051Z,4.10
2022-08-29T05:17:30.717Z,5.38
2022-08-29T05:19:57.426Z,5.10
2022-08-29T05:22:24.340Z,4.78
2022-08-29T05:24:51.181Z,4.95
2022-08-29T05:27:21.183Z,6.13
2022-08-29T05:29:50.732Z,4.18
2022-08-29T05:32:19.548Z,5.18
2022-08-29T05:34:47.441Z,4.60
2022-08-29T05:37:17.391Z,4.68
2022-08-29T05:39:44.070Z,4.20
2022-08-29T05:42:12.560Z,4.85
2022-08-29T05:44:40.301Z,4.30
2022-08-29T05:47:09.518Z,4.85
2022-08-29T05:49:37.691Z,4.90
2022-08-29T05:52:05.450Z,4.40
2022-08-29T05:54:34.807Z,4.50
2022-08-29T05:57:01.917Z,4.55
2022-08-29T05:59:29.010Z,4.22
2022-08-29T06:01:56.096Z,3.70
2022-08-29T06:04:23.167Z,3.92
2022-08-29T06:06:50.778Z,4.32
2022-08-29T06:09:18.132Z,4.15
2022-08-29T06:11:48.958Z,4.15
2022-08-29T06:14:16.789Z,3.90
2022-08-29T06:16:44.027Z,3.88
2022-08-29T06:19:11.846Z,3.70
2022-08-29T06:21:38.950Z,3.88
2022-08-29T06:24:06.257Z,4.50
2022-08-29T06:26:33.408Z,3.53
2022-08-29T06:29:00.546Z,3.78
2022-08-29T06:31:29.325Z,4.18
2022-08-29T06:33:58.465Z,4.28
2022-08-29T06:36:26.301Z,4.00
2022-08-29T06:38:55.795Z,3.53
2022-08-29T06:41:24.555Z,4.10
2022-08-29T06:43:52.048Z,4.00
2022-08-29T06:46:24.149Z,3.80
2022-08-29T06:48:51.839Z,4.03
2022-08-29T06:51:19.237Z,3.80
2022-08-29T06:53:46.346Z,4.15
2022-08-29T06:56:14.682Z,4.93
2022-08-29T06:58:42.173Z,4.18
2022-08-29T07:01:13.816Z,4.68
2022-08-29T07:03:41.249Z,4.70
2022-08-29T07:06:08.526Z,3.80
2022-08-29T07:08:38.040Z,3.63
2022-08-29T07:11:08.041Z,3.88
2022-08-29T07:13:35.209Z,4.45
2022-08-29T07:16:02.629Z,3.53
2022-08-29T07:18:29.896Z,4.15
2022-08-29T07:20:57.073Z,3.63
2022-08-29T07:23:24.191Z,3.83
2022-08-29T07:25:51.333Z,4.13
2022-08-29T07:28:18.395Z,4.72
2022-08-29T07:30:45.481Z,4.10
2022-08-29T07:33:12.580Z,4.20
2022-08-29T07:35:39.650Z,4.25
2022-08-29T07:38:07.125Z,3.97
2022-08-29T07:40:34.365Z,4.78
2022-08-29T07:43:01.496Z,4.30
2022-08-29T07:45:28.599Z,4.65
2022-08-29T07:47:55.731Z,4.82
2022-08-29T07:50:22.900Z,3.90
2022-08-29T07:52:50.191Z,4.75
2022-08-29T07:55:17.810Z,5.43
2022-08-29T07:57:46.512Z,6.03
2022-08-29T08:00:13.767Z,5.47
2022-08-29T08:02:40.924Z,5.15
2022-08-29T08:05:08.246Z,4.63
2022-08-29T08:07:36.004Z,5.28
2022-08-29T08:10:07.474Z,5.10
2022-08-29T08:12:34.567Z,5.60
2022-08-29T08:15:02.963Z,4.88
2022-08-29T08:17:30.040Z,5.43
2022-08-29T08:19:57.098Z,6.40
2022-08-29T08:22:24.307Z,7.05
2022-08-29T08:24:51.373Z,6.03
2022-08-29T08:27:18.443Z,6.65
2022-08-29T08:29:45.770Z,6.32
2022-08-29T08:32:13.277Z,5.85
2022-08-29T08:34:40.404Z,5.72
2022-08-29T08:37:08.241Z,6.07
2022-08-29T08:39:35.424Z,5.55
2022-08-29T08:42:07.035Z,6.30
2022-08-29T08:44:35.102Z,6.32
2022-08-29T08:47:06.348Z,7.13
2022-08-29T08:49:36.332Z,6.00
2022-08-29T08:52:06.618Z,5.82
2022-08-29T08:54:37.250Z,7.03
2022-08-29T08:57:08.596Z,6.65
2022-08-29T08:59:42.595Z,7.85
2022-08-29T09:02:28.223Z,6.32
2022-08-29T09:04:58.102Z,5.88
2022-08-29T09:07:25.474Z,6.82
2022-08-29T09:09:52.538Z,6.70
2022-08-29T09:12:32.513Z,7.15
2022-08-29T09:15:13.973Z,6.25
2022-08-29T09:17:44.803Z,6.82
2022-08-29T09:20:16.934Z,6.50
2022-08-29T09:22:45.992Z,5.75
2022-08-29T09:25:13.501Z,5.85
2022-08-29T09:27:40.652Z,5.63
2022-08-29T09:30:09.457Z,5.82
2022-08-29T09:32:52.471Z,5.38
2022-08-29T09:35:25.846Z,5.47
2022-08-29T09:37:57.359Z,6.20
2022-08-29T09:40:24.833Z,5.85
2022-08-29T09:43:00.676Z,5.88
2022-08-29T09:45:27.772Z,4.80
2022-08-29T09:48:14.187Z,5.88
2022-08-29T09:50:42.221Z,5.50
2022-08-29T09:53:09.779Z,5.45
2022-08-29T09:55:51.023Z,5.20
2022-08-29T09:58:19.036Z,5.18
2022-08-29T10:01:06.663Z,4.97
2022-08-29T10:03:35.457Z,5.10
2022-08-29T10:06:29.300Z,5.28
2022-08-29T10:08:56.649Z,5.25
2022-08-29T10:11:26.957Z,5.20
2022-08-29T10:13:55.545Z,5.95
2022-08-29T10:16:28.630Z,4.85
2022-08-29T10:18:58.671Z,5.60
2022-08-29T10:21:34.964Z,5.65
2022-08-29T10:24:15.815Z,5.30
2022-08-29T10:26:55.069Z,6.10
2022-08-29T10:29:32.153Z,5.50
2022-08-29T10:32:08.171Z,5.43
2022-08-29T10:34:35.815Z,5.80
2022-08-29T10:37:08.559Z,5.30
2022-08-29T10:39:54.635Z,5.30
2022-08-29T10:42:25.817Z,4.18
2022-08-29T10:44:58.227Z,5.22
2022-08-29T10:47:30.596Z,4.97
2022-08-29T10:50:16.992Z,4.72
2022-08-29T10:52:56.682Z,4.53
2022-08-29T10:55:32.688Z,4.72
2022-08-29T10:58:03.645Z,4.78
2022-08-29T11:00:46.465Z,4.68
2022-08-29T11:03:20.818Z,5.00
2022-08-29T11:05:51.856Z,4.63
2022-08-29T11:08:22.610Z,4.60
2022-08-29T11:10:52.206Z,4.60
2022-08-29T11:13:21.940Z,4.68
2022-08-29T11:15:57.215Z,5.22
2022-08-29T11:18:33.484Z,5.28
2022-08-29T11:21:02.586Z,5.10
2022-08-29T11:23:41.882Z,4.60
2022-08-29T11:26:39.113Z,3.95
2022-08-29T11:29:25.174Z,4.88
2022-08-29T11:32:01.206Z,4.80
2022-08-29T11:34:32.541Z,4.28
2022-08-29T11:37:18.094Z,4.63
2022-08-29T11:39:45.118Z,5.50
2022-08-29T11:42:13.945Z,4.53
2022-08-29T11:44:45.598Z,4.53
2022-08-29T11:47:31.140Z,4.68
2022-08-29T11:50:26.722Z,4.22
2022-08-29T11:52:59.622Z,5.28
2022-08-29T11:55:31.161Z,5.15
2022-08-29T11:58:04.230Z,4.25
2022-08-29T12:00:35.361Z,5.13
2022-08-29T12:03:07.315Z,4.47
2022-08-29T12:05:50.510Z,4.32
2022-08-29T12:08:37.207Z,4.57
2022-08-29T12:11:05.825Z,4.00
2022-08-29T12:13:51.314Z,4.35
2022-08-29T12:16:19.664Z,4.18
2022-08-29T12:18:53.658Z,3.65
2022-08-29T12:21:34.158Z,4.10
2022-08-29T12:24:01.259Z,4.10
2022-08-29T12:26:46.870Z,4.38
2022-08-29T12:29:24.377Z,4.30
2022-08-29T12:32:27.375Z,4.43
2022-08-29T12:34:57.617Z,4.72
2022-08-29T12:37:31.664Z,3.65
2022-08-29T12:40:01.605Z,4.20
2022-08-29T12:42:28.824Z,4.38
2022-08-29T12:45:17.739Z,4.47
2022-08-29T12:47:58.117Z,4.43
2022-08-29T12:50:30.417Z,4.78
2022-08-29T12:53:18.158Z,3.92
2022-08-29T12:55:48.985Z,4.00
2022-08-29T12:58:36.108Z,5.78
2022-08-29T13:01:06.649Z,5.18
2022-08-29T13:03:33.654Z,5.43
2022-08-29T13:06:13.128Z,4.22
2022-08-29T13:08:41.136Z,4.57
2022-08-29T13:11:11.022Z,4.03
2022-08-29T13:13:38.155Z,4.65
2022-08-29T13:16:08.255Z,4.70
2022-08-29T13:18:44.584Z,4.38
2022-08-29T13:21:31.729Z,4.63
2022-08-29T13:24:00.485Z,4.82
2022-08-29T13:26:29.376Z,4.65
2022-08-29T13:29:20.539Z,4.90
2022-08-29T13:32:16.858Z,4.82
2022-08-29T13:34:59.925Z,4.38
2022-08-29T13:37:31.858Z,4.18
2022-08-29T13:40:30.188Z,3.97
2022-08-29T13:42:58.904Z,4.93
2022-08-29T13:45:25.865Z,5.18
2022-08-29T13:48:11.249Z,4.68
2022-08-29T13:50:38.383Z,5.15
2022-08-29T13:53:05.109Z,5.00
2022-08-29T13:55:32.685Z,5.13
2022-08-29T13:57:59.449Z,4.63
2022-08-29T14:00:35.136Z,4.75
2022-08-29T14:03:03.489Z,4.28
2022-08-29T14:05:30.647Z,4.20
2022-08-29T14:07:57.844Z,4.43
2022-08-29T14:10:24.925Z,4.50
2022-08-29T14:12:52.048Z,5.20
2022-08-29T14:15:19.272Z,4.45
2022-08-29T14:17:47.447Z,4.50
2022-08-29T14:20:16.077Z,4.93
2022-08-29T14:22:42.931Z,5.10
2022-08-29T14:25:11.034Z,4.68
2022-08-29T14:27:38.675Z,4.05
2022-08-29T14:30:08.446Z,4.53
2022-08-29T14:32:35.313Z,4.90
2022-08-29T14:35:03.827Z,4.50
2022-08-29T14:37:32.441Z,4.75
2022-08-29T14:39:59.381Z,5.22
2022-08-29T14:42:26.211Z,5.22
2022-08-29T14:44:53.052Z,4.75
2022-08-29T14:47:19.882Z,3.80
2022-08-29T14:49:46.680Z,4.88
2022-08-29T14:52:15.018Z,4.13
2022-08-29T14:54:43.097Z,4.05
2022-08-29T14:57:10.625Z,4.82
2022-08-29T14:59:39.439Z,4.70
2022-08-29T15:02:09.318Z,4.85
2022-08-29T15:04:37.822Z,4.78
2022-08-29T15:07:08.945Z,4.68
2022-08-29T15:09:36.198Z,4.90
2022-08-29T15:12:03.638Z,4.35
2022-08-29T15:14:30.919Z,4.13
2022-08-29T15:16:57.981Z,4.50
2022-08-29T15:19:58.109Z,3.88
2022-08-29T15:22:12.350Z,3.80
2022-08-29T15:24:39.703Z,4.80
2022-08-29T15:27:07.320Z,4.47
2022-08-29T15:29:35.070Z,4.80
2022-08-29T15:32:02.259Z,4.40
2022-08-29T15:34:30.117Z,4.80
2022-08-29T15:36:57.866Z,4.18
2022-08-29T15:39:28.044Z,4.38
2022-08-29T15:41:55.990Z,4.53
2022-08-29T15:44:23.170Z,4.25
2022-08-29T15:46:51.361Z,4.28
2022-08-29T15:49:18.939Z,4.55
2022-08-29T15:51:46.102Z,4.22
2022-08-29T15:54:13.271Z,4.22
2022-08-29T15:56:40.368Z,5.32
2022-08-29T15:59:08.150Z,4.50
2022-08-29T16:01:36.161Z,3.83
2022-08-29T16:04:03.455Z,4.53
2022-08-29T16:06:30.683Z,4.50
2022-08-29T16:08:57.737Z,4.63
2022-08-29T16:11:24.385Z,4.07
2022-08-29T16:13:58.065Z,5.85
2022-08-29T16:16:35.237Z,4.28
2022-08-29T16:19:05.280Z,4.32
2022-08-29T16:21:33.923Z,4.53
2022-08-29T16:24:01.770Z,4.10
2022-08-29T16:26:28.839Z,4.07
2022-08-29T16:28:56.110Z,4.53
2022-08-29T16:31:22.851Z,4.68
2022-08-29T16:33:49.674Z,3.95
2022-08-29T16:36:17.981Z,4.53
2022-08-29T16:38:45.012Z,4.25
2022-08-29T16:41:14.560Z,3.92
2022-08-29T16:43:42.265Z,4.65
2022-08-29T16:46:10.657Z,4.25
2022-08-29T16:48:38.967Z,3.75
2022-08-29T16:51:06.896Z,4.00
2022-08-29T16:53:38.500Z,3.92
2022-08-29T16:56:08.588Z,3.83
2022-08-29T16:58:54.728Z,3.60
2022-08-29T17:01:21.946Z,4.60
2022-08-29T17:03:48.742Z,3.58
2022-08-29T17:06:15.403Z,4.47
2022-08-29T17:08:42.096Z,4.35
2022-08-29T17:11:08.962Z,3.92
2022-08-29T17:13:35.641Z,4.30
2022-08-29T17:16:04.746Z,4.30
2022-08-29T17:18:32.173Z,3.75
2022-08-29T17:20:59.866Z,4.32
2022-08-29T17:23:28.133Z,4.22
2022-08-29T17:25:55.629Z,3.83
2022-08-29T17:28:22.763Z,3.67
2022-08-29T17:30:50.632Z,3.72
2022-08-29T17:33:18.475Z,4.68
2022-08-29T17:35:46.313Z,4.10
2022-08-29T17:38:14.413Z,4.90
2022-08-29T17:40:42.055Z,3.83
2022-08-29T17:43:10.106Z,4.28
2022-08-29T17:45:37.389Z,3.88
2022-08-29T17:48:05.051Z,4.15
2022-08-29T17:50:32.834Z,4.03
2022-08-29T17:52:59.511Z,4.63
2022-08-29T17:55:27.590Z,4.50
2022-08-29T17:57:57.813Z,4.30
2022-08-29T18:00:25.033Z,4.90
2022-08-29T18:02:52.713Z,4.65
2022-08-29T18:05:19.513Z,5.13
2022-08-29T18:07:46.275Z,4.63
2022-08-29T18:10:15.281Z,4.63
2022-08-29T18:12:42.220Z,4.60
2022-08-29T18:15:10.270Z,4.70
2022-08-29T18:17:38.179Z,5.32
2022-08-29T18:20:06.697Z,5.47
2022-08-29T18:22:33.583Z,4.82
2022-08-29T18:25:01.374Z,4.45
2022-08-29T18:27:29.441Z,4.28
2022-08-29T18:29:57.411Z,4.32
2022-08-29T18:32:25.479Z,4.90
2022-08-29T18:34:52.647Z,5.07
2022-08-29T18:37:20.245Z,4.95
2022-08-29T18:39:47.162Z,4.68
2022-08-29T18:42:36.906Z,6.18
2022-08-29T18:45:00.737Z,6.88
2022-08-29T18:47:27.596Z,5.00
2022-08-29T18:50:12.807Z,5.03
2022-08-29T18:52:40.066Z,5.35
2022-08-29T18:55:07.410Z,5.95
2022-08-29T18:57:35.129Z,6.88
2022-08-29T19:00:02.775Z,6.28
2022-08-29T19:02:29.606Z,5.88
2022-08-29T19:04:56.410Z,5.85
2022-08-29T19:07:24.539Z,5.60
2022-08-29T19:09:52.925Z,5.93
2022-08-29T19:12:19.757Z,6.22
2022-08-29T19:14:46.545Z,5.57
2022-08-29T19:17:13.310Z,5.85
2022-08-29T19:19:58.602Z,6.15
2022-08-29T19:22:25.807Z,6.55
2022-08-29T19:24:52.465Z,5.80
2022-08-29T19:27:41.654Z,6.25
2022-08-29T19:30:07.856Z,5.80
2022-08-29T19:32:35.106Z,6.25
2022-08-29T19:35:02.269Z,5.43
2022-08-29T19:37:29.166Z,5.15
2022-08-29T19:39:56.028Z,5.88
2022-08-29T19:42:23.855Z,5.95
2022-08-29T19:44:50.584Z,6.75
2022-08-29T19:47:17.333Z,5.97
2022-08-29T19:49:47.134Z,6.95
2022-08-29T19:52:15.637Z,6.18
2022-08-29T19:54:43.516Z,6.75
2022-08-29T19:57:13.688Z,6.20
2022-08-29T19:59:42.412Z,7.03
2022-08-29T20:02:10.562Z,6.10
2022-08-29T20:04:37.963Z,6.82
2022-08-29T20:07:05.414Z,6.68
2022-08-29T20:09:32.150Z,6.15
2022-08-29T20:11:59.015Z,6.38
2022-08-29T20:14:25.779Z,7.50
2022-08-29T20:16:52.437Z,5.90
2022-08-29T20:19:21.239Z,6.55
2022-08-29T20:21:49.585Z,6.40
2022-08-29T20:24:17.051Z,6.93
2022-08-29T20:26:44.679Z,5.75
2022-08-29T20:29:12.531Z,7.03
2022-08-29T20:31:40.272Z,7.18
2022-08-29T20:34:07.131Z,7.43
2022-08-29T20:36:52.654Z,7.00
2022-08-29T20:39:21.845Z,6.85
2022-08-29T20:41:50.561Z,6.22
2022-08-29T20:44:20.157Z,7.15
2022-08-29T20:46:47.153Z,7.43
2022-08-29T20:49:17.341Z,7.97
2022-08-29T20:51:44.367Z,6.05
2022-08-29T20:54:17.276Z,6.68
2022-08-29T20:56:44.075Z,7.78
2022-08-29T20:59:11.663Z,6.78
2022-08-29T21:01:40.185Z,7.93
2022-08-29T21:04:26.767Z,7.57
2022-08-29T21:06:55.105Z,7.53
2022-08-29T21:09:22.509Z,7.75
2022-08-29T21:11:50.289Z,7.60
2022-08-29T21:14:17.592Z,7.82
2022-08-29T21:16:44.617Z,7.75
2022-08-29T21:19:12.713Z,7.90
2022-08-29T21:21:41.198Z,7.82
2022-08-29T21:24:10.369Z,8.43
2022-08-29T21:26:38.113Z,7.43
2022-08-29T21:29:07.219Z,8.55
2022-08-29T21:31:35.066Z,8.32
2022-08-29T21:34:06.763Z,8.15
2022-08-29T21:36:35.815Z,8.57
2022-08-29T21:39:03.836Z,8.60
2022-08-29T21:41:31.755Z,7.38
2022-08-29T21:43:58.603Z,9.30
2022-08-29T21:46:28.968Z,9.05
2022-08-29T21:48:57.764Z,9.20
2022-08-29T21:51:25.333Z,8.98
2022-08-29T21:53:55.419Z,9.30
2022-08-29T21:56:24.610Z,10.38
2022-08-29T21:58:53.996Z,8.95
2022-08-29T22:01:23.572Z,8.82
2022-08-29T22:03:50.751Z,9.02
2022-08-29T22:06:18.090Z,8.70
2022-08-29T22:08:46.005Z,8.18
2022-08-29T22:11:16.885Z,8.02
2022-08-29T22:13:43.906Z,8.50
2022-08-29T22:16:29.709Z,8.35
2022-08-29T22:18:59.353Z,9.60
2022-08-29T22:21:27.712Z,10.02
2022-08-29T22:23:54.822Z,8.63
2022-08-29T22:26:22.089Z,9.05
2022-08-29T22:28:49.044Z,8.73
2022-08-29T22:31:16.426Z,9.07
2022-08-29T22:33:43.670Z,9.45
2022-08-29T22:36:12.937Z,9.05
2022-08-29T22:38:45.291Z,8.77
2022-08-29T22:41:16.859Z,9.48
2022-08-29T22:43:45.139Z,9.60
2022-08-29T22:46:23.180Z,10.13
2022-08-29T22:48:51.361Z,9.23
2022-08-29T22:51:25.554Z,9.13
2022-08-29T22:54:11.829Z,10.32
2022-08-29T22:56:42.787Z,9.52
2022-08-29T22:59:09.703Z,9.68
2022-08-29T23:01:38.913Z,9.43
2022-08-29T23:04:07.023Z,9.65
2022-08-29T23:06:34.463Z,10.85
2022-08-29T23:09:01.235Z,9.48
2022-08-29T23:11:28.012Z,8.73
2022-08-29T23:13:55.931Z,10.10
2022-08-29T23:16:23.486Z,10.07
2022-08-29T23:18:50.785Z,10.38
2022-08-29T23:21:18.193Z,10.25
2022-08-29T23:23:45.470Z,9.20
2022-08-29T23:26:12.382Z,10.05
2022-08-29T23:28:39.188Z,10.85
2022-08-29T23:31:06.408Z,8.52
2022-08-29T23:33:33.177Z,9.60
2022-08-29T23:36:00.072Z,9.93
2022-08-29T23:38:26.763Z,10.52
2022-08-29T23:40:57.087Z,10.68
2022-08-29T23:43:24.762Z,10.15
2022-08-29T23:45:51.921Z,10.50
2022-08-29T23:48:18.983Z,11.00
2022-08-29T23:53:21.021Z,10.75
2022-08-29T23:55:48.208Z,9.60
2022-08-29T23:58:15.083Z,10.43
